createdAt,value
2019-05-12T00:03:00.000Z,98626
2019-05-12T00:08:00.000Z,98625
2019-05-12T00:13:00.000Z,98624
2019-05-12T00:18:00.000Z,98628
2019-05-12T00:23:00.000Z,98624
2019-05-12T00:28:00.000Z,98627
2019-05-12T00:33:00.000Z,98631
2019-05-12T00:38:00.000Z,98617
2019-05-12T00:43:00.000Z,98610
2019-05-12T00:48:00.000Z,98629
2019-05-12T00:53:00.000Z,98623
2019-05-12T00:58:00.000Z,98612
2019-05-12T01:03:00.000Z,98612
2019-05-12T01:08:00.000Z,98614
2019-05-12T01:13:00.000Z,98622
2019-05-12T01:18:00.000Z,98624
2019-05-12T01:23:00.000Z,98613
2019-05-12T01:29:00.000Z,98623
2019-05-12T01:34:00.000Z,98633
2019-05-12T01:39:00.000Z,98628
2019-05-12T01:44:00.000Z,98636
2019-05-12T01:49:00.000Z,98627
2019-05-12T01:54:00.000Z,98642
2019-05-12T01:59:00.000Z,98665
2019-05-12T02:04:00.000Z,98678
2019-05-12T02:09:00.000Z,98696
2019-05-12T02:14:00.000Z,98707
2019-05-12T02:19:00.000Z,98697
2019-05-12T02:24:00.000Z,98695
2019-05-12T02:29:00.000Z,98707
2019-05-12T02:34:00.000Z,98722
2019-05-12T02:39:00.000Z,98720
2019-05-12T02:44:00.000Z,98717
2019-05-12T02:49:00.000Z,98716
2019-05-12T02:54:00.000Z,98714
2019-05-12T03:00:00.000Z,98723
2019-05-12T03:05:00.000Z,98731
2019-05-12T03:10:00.000Z,98739
2019-05-12T03:15:00.000Z,98744
2019-05-12T03:20:00.000Z,98743
2019-05-12T03:25:00.000Z,98747
2019-05-12T03:30:00.000Z,98747
2019-05-12T03:35:00.000Z,98748
2019-05-12T03:40:00.000Z,98764
2019-05-12T03:45:00.000Z,98771
2019-05-12T03:50:00.000Z,98759
2019-05-12T03:55:00.000Z,98779
2019-05-12T04:00:00.000Z,98790
2019-05-12T04:05:00.000Z,98792
2019-05-12T04:10:00.000Z,98801
2019-05-12T04:15:00.000Z,98787
2019-05-12T04:20:00.000Z,98786
2019-05-12T04:25:00.000Z,98795
2019-05-12T04:31:00.000Z,98783
2019-05-12T04:36:00.000Z,98795
2019-05-12T04:41:00.000Z,98799
2019-05-12T04:46:00.000Z,98819
2019-05-12T04:51:00.000Z,98811
2019-05-12T04:56:00.000Z,98810
2019-05-12T05:01:00.000Z,98823
2019-05-12T05:06:00.000Z,98827
2019-05-12T05:11:00.000Z,98831
2019-05-12T05:16:00.000Z,98839
2019-05-12T05:21:00.000Z,98841
2019-05-12T05:26:00.000Z,98836
2019-05-12T05:31:00.000Z,98843
2019-05-12T05:36:00.000Z,98858
2019-05-12T05:41:00.000Z,98858
2019-05-12T05:46:00.000Z,98857
2019-05-12T05:51:00.000Z,98879
2019-05-12T05:56:00.000Z,98877
2019-05-12T06:02:00.000Z,98891
2019-05-12T06:07:00.000Z,98885
2019-05-12T06:12:00.000Z,98886
2019-05-12T06:17:00.000Z,98901
2019-05-12T06:22:00.000Z,98902
2019-05-12T06:27:00.000Z,98892
2019-05-12T06:32:00.000Z,98909
2019-05-12T06:37:00.000Z,98913
2019-05-12T06:42:00.000Z,98907
2019-05-12T06:47:00.000Z,98908
2019-05-12T06:52:00.000Z,98913
2019-05-12T06:57:00.000Z,98924
2019-05-12T07:02:00.000Z,98917
2019-05-12T07:07:00.000Z,98935
2019-05-12T07:12:00.000Z,98942
2019-05-12T07:18:00.000Z,98968
2019-05-12T07:23:00.000Z,98967
2019-05-12T07:28:00.000Z,98955
2019-05-12T07:33:00.000Z,98970
2019-05-12T07:38:00.000Z,98971
2019-05-12T07:43:00.000Z,98978
2019-05-12T07:48:00.000Z,98979
2019-05-12T07:53:00.000Z,98989
2019-05-12T07:58:00.000Z,99005
2019-05-12T08:03:00.000Z,99005
2019-05-12T08:08:00.000Z,99010
2019-05-12T08:13:00.000Z,99005
2019-05-12T08:18:00.000Z,99016
2019-05-12T08:23:00.000Z,99021
2019-05-12T08:28:00.000Z,99023
2019-05-12T08:33:00.000Z,99039
2019-05-12T08:38:00.000Z,99043
2019-05-12T08:43:00.000Z,99047
2019-05-12T08:48:00.000Z,99052
2019-05-12T08:54:00.000Z,99052
2019-05-12T08:59:00.000Z,99042
2019-05-12T09:04:00.000Z,99056
2019-05-12T09:09:00.000Z,99063
2019-05-12T09:14:00.000Z,99086
2019-05-12T09:19:00.000Z,99089
2019-05-12T09:24:00.000Z,99088
2019-05-12T09:29:00.000Z,99088
2019-05-12T09:34:00.000Z,99092
2019-05-12T09:39:00.000Z,99093
2019-05-12T09:44:00.000Z,99101
2019-05-12T09:49:00.000Z,99109
2019-05-12T09:54:00.000Z,99127
2019-05-12T09:59:00.000Z,99125
2019-05-12T10:04:00.000Z,99123
2019-05-12T10:10:00.000Z,99135
2019-05-12T10:15:00.000Z,99149
2019-05-12T10:20:00.000Z,99160
2019-05-12T10:25:00.000Z,99162
2019-05-12T10:30:00.000Z,99166
2019-05-12T10:35:00.000Z,99160
2019-05-12T10:40:00.000Z,99182
2019-05-12T10:45:00.000Z,99191
2019-05-12T10:50:00.000Z,99198
2019-05-12T10:55:00.000Z,99204
2019-05-12T11:00:00.000Z,99229
2019-05-12T11:05:00.000Z,99222
2019-05-12T11:10:00.000Z,99228
2019-05-12T11:15:00.000Z,99248
2019-05-12T11:20:00.000Z,99243
2019-05-12T11:25:00.000Z,99234
2019-05-12T11:30:00.000Z,99268
2019-05-12T11:35:00.000Z,99281
2019-05-12T11:40:00.000Z,99288
2019-05-12T11:45:00.000Z,99287
2019-05-12T11:50:00.000Z,99301
2019-05-12T11:55:00.000Z,99324
2019-05-12T12:00:00.000Z,99315
2019-05-12T12:06:00.000Z,99329
2019-05-12T12:11:00.000Z,99324
2019-05-12T12:16:00.000Z,99335
2019-05-12T12:21:00.000Z,99348
2019-05-12T12:26:00.000Z,99350
2019-05-12T12:31:00.000Z,99351
2019-05-12T12:36:00.000Z,99363
2019-05-12T12:41:00.000Z,99357
2019-05-12T12:46:00.000Z,99354
2019-05-12T12:52:00.000Z,99355
2019-05-12T12:57:00.000Z,99355
2019-05-12T13:02:00.000Z,99355
2019-05-12T13:07:00.000Z,99349
2019-05-12T13:12:00.000Z,99365
2019-05-12T13:17:00.000Z,99356
2019-05-12T13:22:00.000Z,99379
2019-05-12T13:27:00.000Z,99392
2019-05-12T13:32:00.000Z,99392
2019-05-12T13:37:00.000Z,99397
2019-05-12T13:42:00.000Z,99414
2019-05-12T13:47:00.000Z,99418
2019-05-12T13:52:00.000Z,99416
2019-05-12T13:57:00.000Z,99413
2019-05-12T14:02:00.000Z,99432
2019-05-12T14:08:00.000Z,99443
2019-05-12T14:13:00.000Z,99453
2019-05-12T14:18:00.000Z,99449
2019-05-12T14:23:00.000Z,99459
2019-05-12T14:28:00.000Z,99466
2019-05-12T14:33:00.000Z,99472
2019-05-12T14:38:00.000Z,99469
2019-05-12T14:43:00.000Z,99473
2019-05-12T14:48:00.000Z,99461
2019-05-12T14:53:00.000Z,99462
2019-05-12T14:58:00.000Z,99453
2019-05-12T15:04:00.000Z,99477
2019-05-12T15:09:00.000Z,99471
2019-05-12T15:14:00.000Z,99483
2019-05-12T15:19:00.000Z,99492
2019-05-12T15:24:00.000Z,99492
2019-05-12T15:29:00.000Z,99497
2019-05-12T15:34:00.000Z,99504
2019-05-12T15:39:00.000Z,99516
2019-05-12T15:44:00.000Z,99520
2019-05-12T15:49:00.000Z,99515
2019-05-12T15:54:00.000Z,99515
2019-05-12T15:59:00.000Z,99518
2019-05-12T16:04:00.000Z,99521
2019-05-12T16:09:00.000Z,99535
2019-05-12T16:14:00.000Z,99534
2019-05-12T16:19:00.000Z,99553
2019-05-12T16:24:00.000Z,99562
2019-05-12T16:29:00.000Z,99586
2019-05-12T16:34:00.000Z,99593
2019-05-12T16:40:00.000Z,99601
2019-05-12T16:45:00.000Z,99604
2019-05-12T16:50:00.000Z,99603
2019-05-12T16:55:00.000Z,99621
2019-05-12T17:00:00.000Z,99628
2019-05-12T17:05:00.000Z,99640
2019-05-12T17:10:00.000Z,99642
2019-05-12T17:15:00.000Z,99645
2019-05-12T17:20:00.000Z,99636
2019-05-12T17:25:00.000Z,99622
2019-05-12T17:30:00.000Z,99629
2019-05-12T17:35:00.000Z,99638
2019-05-12T17:40:00.000Z,99651
2019-05-12T17:45:00.000Z,99647
2019-05-12T17:50:00.000Z,99653
2019-05-12T17:55:00.000Z,99650
2019-05-12T18:00:00.000Z,99649
2019-05-12T18:05:00.000Z,99649
2019-05-12T18:10:00.000Z,99653
2019-05-12T18:15:00.000Z,99668
2019-05-12T18:21:00.000Z,99685
2019-05-12T18:26:00.000Z,99695
2019-05-12T18:31:00.000Z,99694
2019-05-12T18:36:00.000Z,99699
2019-05-12T18:41:00.000Z,99717
2019-05-12T18:46:00.000Z,99709
2019-05-12T18:51:00.000Z,99720
2019-05-12T18:56:00.000Z,99736
2019-05-12T19:01:00.000Z,99728
2019-05-12T19:06:00.000Z,99743
2019-05-12T19:11:00.000Z,99744
2019-05-12T19:16:00.000Z,99740
2019-05-12T19:21:00.000Z,99743
2019-05-12T19:27:00.000Z,99738
2019-05-12T19:32:00.000Z,99746
2019-05-12T19:37:00.000Z,99738
2019-05-12T19:42:00.000Z,99743
2019-05-12T19:47:00.000Z,99738
2019-05-12T19:52:00.000Z,99759
2019-05-12T19:57:00.000Z,99761
2019-05-12T20:02:00.000Z,99780
2019-05-12T20:07:00.000Z,99758
2019-05-12T20:12:00.000Z,99774
2019-05-12T20:17:00.000Z,99769
2019-05-12T20:22:00.000Z,99775
2019-05-12T20:27:00.000Z,99771
2019-05-12T20:32:00.000Z,99783
2019-05-12T20:37:00.000Z,99774
2019-05-12T20:42:00.000Z,99784
2019-05-12T20:48:00.000Z,99781
2019-05-12T20:53:00.000Z,99783
2019-05-12T20:58:00.000Z,99787
2019-05-12T21:03:00.000Z,99795
2019-05-12T21:08:00.000Z,99815
2019-05-12T21:13:00.000Z,99825
2019-05-12T21:19:00.000Z,99828
2019-05-12T21:24:00.000Z,99825
2019-05-12T21:29:00.000Z,99818
2019-05-12T21:34:00.000Z,99809
2019-05-12T21:39:00.000Z,99817
2019-05-12T21:44:00.000Z,99824
2019-05-12T21:49:00.000Z,99815
2019-05-12T21:54:00.000Z,99796
2019-05-12T21:59:00.000Z,99785
2019-05-12T22:04:00.000Z,99796
2019-05-12T22:09:00.000Z,99797
2019-05-12T22:14:00.000Z,99788
2019-05-12T22:19:00.000Z,99791
2019-05-12T22:24:00.000Z,99797
2019-05-12T22:29:00.000Z,99798
2019-05-12T22:34:00.000Z,99792
2019-05-12T22:39:00.000Z,99788
2019-05-12T22:44:00.000Z,99802
2019-05-12T22:50:00.000Z,99797
2019-05-12T22:55:00.000Z,99808
2019-05-12T23:00:00.000Z,99804
2019-05-12T23:05:00.000Z,99797
2019-05-12T23:10:00.000Z,99802
2019-05-12T23:15:00.000Z,99817
2019-05-12T23:20:00.000Z,99817
2019-05-12T23:25:00.000Z,99820
2019-05-12T23:30:00.000Z,99810
2019-05-12T23:35:00.000Z,99817
2019-05-12T23:40:00.000Z,99814
2019-05-12T23:45:00.000Z,99819
2019-05-12T23:50:00.000Z,99815
2019-05-12T23:55:00.000Z,99815
